Terminal Aerodrome Forecast
Issued by NWS Twin Cities, MN

Home | Current Version | Previous Version | Text Only | Print | Product List | Glossary On
Versions: 1 2 3 4 5 6 7 8 9 10 11 12 13 14 15 16 17
279
FTUS43 KMPX 210257 AAB
TAFSTC
TAF AMD
KSTC 210257Z 2103/2124 27014G21KT P6SM OVC008
     FM210600 28008KT P6SM SKC
     FM210800 23003KT 3SM BR SCT007
      TEMPO 2109/2113 1/2SM FG BKN003
     FM211500 18007KT P6SM SCT250=

USA.gov is the U.S. government's official web portal to all federal, state and local government web resources and services.